Time;durP1;ratioP1;P1;durP2;ratioP2;P2;SDS_P1;SDS_P2;PMS_P1;PMS_P2;Temp;Humidity;BMP_temperature;BMP_pressure;BME280_temperature;BME280_humidity;BME280_pressure;Samples;Min_cycle;Max_cycle;Signal;HPM_P1;HPM_P2
2022/05/25 00:01:52;;;;;;;4.40;2.30;;;;;;;10.70;62.28;100572.66;5014763;28;20461;-70
2022/05/25 00:04:18;;;;;;;5.32;2.50;;;;;;;10.69;62.47;100575.50;5015154;28;20057;-70
2022/05/25 00:06:46;;;;;;;4.10;2.35;;;;;;;10.62;62.68;100574.50;5014766;28;20162;-69
2022/05/25 00:09:13;;;;;;;3.50;2.30;;;;;;;10.54;63.16;100574.44;5014735;28;20054;-70
2022/05/25 00:11:40;;;;;;;7.40;2.60;;;;;;;10.58;63.24;100575.78;5015395;28;20092;-69
2022/05/25 00:14:06;;;;;;;3.70;2.38;;;;;;;10.56;63.33;100586.69;5015041;28;20089;-70
2022/05/25 00:16:33;;;;;;;5.40;2.10;;;;;;;10.56;63.19;100588.53;5015512;28;20500;-70
2022/05/25 00:21:45;;;;;;;4.63;2.08;;;;;;;10.47;63.46;100591.16;5014868;28;20486;-69
2022/05/25 00:24:11;;;;;;;5.72;2.42;;;;;;;10.44;63.32;100591.50;5014986;28;20085;-69
2022/05/25 00:26:38;;;;;;;6.93;2.53;;;;;;;10.40;63.43;100589.28;5014665;28;20148;-70
2022/05/25 00:29:05;;;;;;;3.65;2.17;;;;;;;10.32;63.50;100592.78;5014930;28;20053;-70
2022/05/25 00:31:32;;;;;;;3.30;2.15;;;;;;;10.27;63.30;100595.13;5014387;28;20092;-69
2022/05/25 00:33:58;;;;;;;3.33;2.40;;;;;;;10.21;63.70;100595.75;5014615;28;20064;-70
2022/05/25 00:36:25;;;;;;;3.40;2.20;;;;;;;10.17;64.06;100597.09;5014593;28;20054;-69
2022/05/25 00:38:52;;;;;;;5.78;2.10;;;;;;;10.23;63.62;100594.56;5014383;28;20073;-69
2022/05/25 00:41:23;;;;;;;5.95;1.88;;;;;;;10.23;63.24;100581.19;5014428;28;20069;-69
2022/05/25 00:43:49;;;;;;;4.85;2.55;;;;;;;10.24;63.11;100590.09;4996673;28;20045;-70
2022/05/25 00:46:18;;;;;;;7.82;1.98;;;;;;;10.17;63.16;100586.38;5014578;28;20049;-70
2022/05/25 00:48:50;;;;;;;4.28;2.50;;;;;;;10.12;63.21;100583.31;5015178;28;20056;-70
2022/05/25 00:51:27;;;;;;;7.38;2.55;;;;;;;10.08;63.08;100584.63;5014472;28;20049;-70
2022/05/25 00:54:04;;;;;;;3.35;2.10;;;;;;;10.00;63.76;100577.41;5014657;28;20551;-70
2022/05/25 00:56:32;;;;;;;5.93;1.98;;;;;;;9.97;63.58;100573.19;5014746;28;20096;-70
2022/05/25 00:59:04;;;;;;;4.57;1.95;;;;;;;9.93;63.78;100577.19;5014227;28;20049;-69
2022/05/25 01:01:31;;;;;;;5.13;2.45;;;;;;;9.86;63.81;100575.31;5013969;28;20086;-70
2022/05/25 01:03:58;;;;;;;4.07;2.20;;;;;;;9.93;63.99;100579.06;5014388;28;20046;-69
2022/05/25 01:07:11;;;;;;;6.30;1.95;;;;;;;9.88;64.04;100582.19;5014273;28;20099;-70
2022/05/25 01:09:47;;;;;;;6.85;2.50;;;;;;;9.94;63.82;100586.91;5014275;28;20144;-70
2022/05/25 01:12:31;;;;;;;6.88;2.75;;;;;;;9.85;64.27;100585.19;5014264;28;20497;-70
2022/05/25 01:15:24;;;;;;;3.92;2.55;;;;;;;9.83;64.39;100586.34;5018802;28;20089;-70
2022/05/25 01:18:09;;;;;;;4.18;2.60;;;;;;;9.83;64.67;100589.03;5014616;28;20140;-70
2022/05/25 01:20:47;;;;;;;3.63;2.58;;;;;;;9.79;64.97;100581.31;5019041;28;20111;-70
2022/05/25 01:23:23;;;;;;;4.18;2.42;;;;;;;9.78;65.20;100584.97;5018496;28;20057;-70
2022/05/25 01:26:16;;;;;;;5.35;2.70;;;;;;;9.75;65.31;100596.03;5018546;28;20081;-70
2022/05/25 01:29:01;;;;;;;5.07;2.60;;;;;;;9.75;65.45;100595.16;5018439;28;20088;-70
2022/05/25 01:31:35;;;;;;;3.17;2.15;;;;;;;9.73;65.45;100591.81;5017747;28;20056;-70
2022/05/25 01:34:12;;;;;;;5.40;2.80;;;;;;;9.68;65.63;100588.75;5000899;28;20081;-70
2022/05/25 01:36:54;;;;;;;4.85;2.95;;;;;;;9.71;65.53;100583.94;5018243;28;20450;-70
2022/05/25 01:39:24;;;;;;;7.38;2.60;;;;;;;9.70;66.17;100578.75;5017662;28;20046;-70
2022/05/25 01:41:56;;;;;;;4.47;2.60;;;;;;;9.71;66.43;100577.72;5018148;28;20049;-70
2022/05/25 01:44:29;;;;;;;3.67;2.50;;;;;;;9.68;66.36;100578.03;5018572;28;20056;-70
2022/05/25 01:47:01;;;;;;;6.70;2.67;;;;;;;9.65;66.62;100583.75;5018193;28;20144;-70
2022/05/25 01:49:35;;;;;;;3.05;2.60;;;;;;;9.61;66.67;100583.19;5017992;28;20497;-70
2022/05/25 01:52:08;;;;;;;5.40;2.40;;;;;;;9.59;66.83;100595.91;5018020;28;20073;-70
2022/05/25 01:54:38;;;;;;;5.97;3.13;;;;;;;9.60;66.87;100600.25;5017860;28;20539;-70
2022/05/25 01:57:10;;;;;;;6.25;3.00;;;;;;;9.56;67.04;100598.91;5017728;28;20089;-70
2022/05/25 01:59:37;;;;;;;6.28;2.78;;;;;;;9.56;67.20;100607.78;5000647;28;20180;-71
2022/05/25 02:04:54;;;;;;;5.18;3.13;;;;;;;9.56;67.55;100617.66;5017186;28;20136;-70
2022/05/25 02:07:59;;;;;;;5.40;3.15;;;;;;;9.55;67.54;100614.13;5017641;28;20140;-70
2022/05/25 02:10:39;;;;;;;5.55;3.45;;;;;;;9.53;67.97;100616.13;5016883;28;20153;-70
2022/05/25 02:13:33;;;;;;;6.45;4.03;;;;;;;9.54;68.07;100612.47;5017220;28;20557;-70
2022/05/25 02:16:22;;;;;;;6.18;3.47;;;;;;;9.56;67.97;100618.50;5017177;28;20136;-70
2022/05/25 02:19:14;;;;;;;7.53;3.50;;;;;;;9.56;68.20;100618.50;5016792;28;20054;-70
2022/05/25 02:21:46;;;;;;;9.27;3.70;;;;;;;9.59;68.30;100616.50;5017062;28;20049;-70
2022/05/25 02:24:16;;;;;;;4.28;3.35;;;;;;;9.57;68.12;100614.81;5016878;28;20050;-70
2022/05/25 02:27:06;;;;;;;6.38;3.30;;;;;;;9.59;68.17;100622.69;5017071;28;20061;-70
2022/05/25 02:29:39;;;;;;;4.85;3.00;;;;;;;9.54;67.98;100615.13;5004862;28;20049;-70
2022/05/25 02:32:20;;;;;;;3.88;2.85;;;;;;;9.53;68.19;100628.66;5017023;28;20085;-70
2022/05/25 02:34:50;;;;;;;4.80;2.90;;;;;;;9.53;68.59;100634.88;5016833;28;20088;-70
2022/05/25 02:37:20;;;;;;;5.68;3.10;;;;;;;9.49;68.83;100641.53;5017373;28;20078;-70
2022/05/25 02:39:50;;;;;;;4.68;3.00;;;;;;;9.50;68.61;100642.38;5017095;28;20064;-70
2022/05/25 02:42:17;;;;;;;7.93;2.72;;;;;;;9.51;68.62;100636.03;5016879;28;20046;-70
2022/05/25 02:44:44;;;;;;;5.22;2.80;;;;;;;9.53;68.69;100634.88;5016952;28;20096;-70
2022/05/25 02:47:10;;;;;;;5.40;2.90;;;;;;;9.57;68.66;100636.22;5016818;28;20129;-70
2022/05/25 02:49:37;;;;;;;3.85;2.95;;;;;;;9.58;68.94;100634.41;5016762;28;20085;-70
2022/05/25 02:52:07;;;;;;;4.80;3.03;;;;;;;9.57;68.65;100643.44;5016990;28;20540;-70
2022/05/25 02:54:35;;;;;;;5.38;2.90;;;;;;;9.58;68.71;100634.41;5016529;28;20053;-70
2022/05/25 02:57:02;;;;;;;7.63;3.20;;;;;;;9.56;68.88;100634.56;5016477;28;20149;-70
2022/05/25 02:59:28;;;;;;;6.13;3.10;;;;;;;9.59;68.84;100630.72;5016289;28;20049;-70
2022/05/25 03:01:55;;;;;;;4.68;3.35;;;;;;;9.59;69.18;100643.28;5016341;28;20076;-70
2022/05/25 03:04:21;;;;;;;4.13;3.00;;;;;;;9.57;69.22;100640.75;4998953;28;20136;-70
2022/05/25 03:06:48;;;;;;;7.55;3.53;;;;;;;9.57;69.42;100646.94;5017006;28;20088;-70
2022/05/25 03:09:15;;;;;;;5.38;3.17;;;;;;;9.59;69.53;100638.75;5015963;28;20050;-70
2022/05/25 03:11:43;;;;;;;3.35;2.55;;;;;;;9.61;69.59;100654.66;5016215;28;20516;-70
2022/05/25 03:14:10;;;;;;;3.83;3.08;;;;;;;9.61;69.54;100660.03;5016645;28;20080;-70
2022/05/25 03:16:37;;;;;;;7.47;3.05;;;;;;;9.63;69.39;100661.56;5016061;28;20157;-70
2022/05/25 03:19:03;;;;;;;9.93;3.33;;;;;;;9.64;69.42;100667.75;5016341;28;20050;-69
2022/05/25 03:21:30;;;;;;;4.93;2.70;;;;;;;9.65;69.54;100664.94;5016565;28;20080;-70
2022/05/25 03:23:56;;;;;;;4.97;2.90;;;;;;;9.62;69.48;100669.75;5016244;28;20145;-70
2022/05/25 03:26:22;;;;;;;6.45;3.20;;;;;;;9.68;69.21;100661.09;5016163;28;20085;-70
2022/05/25 03:28:49;;;;;;;6.03;3.17;;;;;;;9.71;69.17;100672.31;5015525;28;20148;-70
2022/05/25 03:31:16;;;;;;;4.88;2.60;;;;;;;9.70;69.21;100678.69;5015257;28;20046;-70
2022/05/25 03:33:43;;;;;;;8.13;3.08;;;;;;;9.70;68.96;100689.41;5015311;28;20133;-70
2022/05/25 03:36:10;;;;;;;7.00;3.35;;;;;;;9.70;68.89;100696.59;5014945;28;20088;-70
2022/05/25 03:38:36;;;;;;;6.47;3.33;;;;;;;9.74;68.67;100687.25;5015797;28;20145;-70
2022/05/25 03:41:03;;;;;;;4.55;3.00;;;;;;;9.79;68.79;100679.59;5016039;28;20508;-70
2022/05/25 03:43:32;;;;;;;4.55;3.15;;;;;;;9.79;68.50;100679.59;5015963;28;20446;-70
2022/05/25 03:45:59;;;;;;;3.88;2.97;;;;;;;9.79;68.30;100687.66;5016305;28;20054;-70
2022/05/25 03:48:26;;;;;;;7.65;3.30;;;;;;;9.83;68.03;100682.81;5015930;28;20058;-70
2022/05/25 03:50:53;;;;;;;3.40;3.10;;;;;;;9.82;67.91;100692.69;5015607;28;20050;-70
2022/05/25 03:53:19;;;;;;;7.45;3.17;;;;;;;9.77;67.84;100689.63;5015308;28;20046;-70
2022/05/25 03:55:47;;;;;;;7.13;3.30;;;;;;;9.83;67.80;100694.38;5015427;28;20145;-70
2022/05/25 03:58:14;;;;;;;5.20;3.08;;;;;;;9.87;67.54;100694.91;5015181;28;20050;-70
2022/05/25 04:00:40;;;;;;;8.60;3.03;;;;;;;9.86;67.37;100696.75;5015423;28;20550;-70
2022/05/25 04:03:11;;;;;;;6.22;3.38;;;;;;;9.87;67.41;100695.72;5015241;28;20490;-70
2022/05/25 04:05:37;;;;;;;6.82;3.40;;;;;;;9.87;67.46;100701.09;5015995;28;20058;-70
2022/05/25 04:08:04;;;;;;;4.78;3.30;;;;;;;9.91;67.17;100694.41;5014591;28;20092;-69
2022/05/25 04:10:31;;;;;;;5.45;3.55;;;;;;;9.99;67.25;100690.94;5014470;28;20100;-70
2022/05/25 04:12:58;;;;;;;6.55;3.65;;;;;;;10.02;67.10;100694.16;5014972;28;20108;-70
2022/05/25 04:15:27;;;;;;;4.85;3.30;;;;;;;10.04;67.05;100700.22;5014933;28;20050;-69
2022/05/25 04:17:54;;;;;;;8.73;3.53;;;;;;;10.11;66.87;100703.09;5014911;28;20069;-71
2022/05/25 04:20:22;;;;;;;9.00;3.95;;;;;;;10.19;66.57;100713.03;5015316;28;20054;-69
2022/05/25 04:22:50;;;;;;;5.25;3.78;;;;;;;10.19;66.80;100721.91;5014789;28;20054;-70
2022/05/25 04:25:19;;;;;;;8.35;4.10;;;;;;;10.24;66.48;100719.63;5015254;28;20128;-69
2022/05/25 04:27:47;;;;;;;6.82;3.55;;;;;;;10.29;66.18;100719.13;5014506;28;20097;-70
2022/05/25 04:30:18;;;;;;;6.50;3.80;;;;;;;10.35;65.96;100709.63;5015147;28;20548;-69
2022/05/25 04:32:45;;;;;;;19.05;8.02;;;;;;;10.32;65.91;100708.09;5015158;28;20049;-70
2022/05/25 04:35:13;;;;;;;12.35;7.93;;;;;;;10.40;65.24;100720.69;5014646;28;20046;-70
2022/05/25 04:37:57;;;;;;;7.88;5.13;;;;;;;10.40;64.93;100720.69;5014969;28;20058;-69
2022/05/25 04:40:33;;;;;;;5.72;3.85;;;;;;;10.38;64.93;100723.56;5014154;28;20084;-70
2022/05/25 04:43:03;;;;;;;7.03;4.10;;;;;;;10.39;65.03;100722.53;5014450;28;20049;-70
2022/05/25 04:45:31;;;;;;;6.20;3.80;;;;;;;10.44;64.93;100724.75;5014763;28;20140;-69
2022/05/25 04:48:00;;;;;;;9.88;4.05;;;;;;;10.48;64.90;100720.75;5014341;28;20141;-69
2022/05/25 04:50:29;;;;;;;9.57;4.38;;;;;;;10.49;64.52;100717.06;5014714;28;20074;-70
2022/05/25 04:52:59;;;;;;;12.00;4.03;;;;;;;10.54;64.27;100711.25;5015050;28;20405;-70
2022/05/25 04:58:21;;;;;;;5.38;3.88;;;;;;;10.67;63.34;100704.44;5014656;28;20054;-69
2022/05/25 05:00:48;;;;;;;5.85;4.75;;;;;;;10.76;63.44;100708.00;5014463;28;20482;-69
2022/05/25 05:03:15;;;;;;;8.77;3.80;;;;;;;10.74;63.38;100710.00;5014414;28;20054;-70
2022/05/25 05:05:42;;;;;;;9.23;3.75;;;;;;;10.68;63.03;100710.63;5014210;28;20073;-70
2022/05/25 05:08:08;;;;;;;7.20;4.72;;;;;;;10.68;62.95;100707.94;5014742;28;20119;-70
2022/05/25 05:10:35;;;;;;;9.63;4.10;;;;;;;10.81;62.94;100721.75;5014282;28;20053;-70
2022/05/25 05:13:04;;;;;;;7.53;4.45;;;;;;;10.84;62.98;100724.13;5014777;28;20473;-69
2022/05/25 05:15:36;;;;;;;7.53;5.10;;;;;;;11.01;62.22;100729.56;5014833;28;20419;-70
2022/05/25 05:18:03;;;;;;;7.20;3.92;;;;;;;11.13;62.02;100726.41;5014671;28;20474;-69
2022/05/25 05:20:30;;;;;;;8.63;4.35;;;;;;;11.21;61.59;100725.59;5014700;28;20053;-69
2022/05/25 05:22:56;;;;;;;6.97;3.97;;;;;;;11.22;61.74;100744.22;5015480;28;20076;-70
2022/05/25 05:25:24;;;;;;;6.00;4.03;;;;;;;11.41;60.83;100735.03;5014121;28;20058;-70
2022/05/25 05:27:50;;;;;;;6.57;4.05;;;;;;;11.57;60.18;100734.22;5013565;28;20054;-70
2022/05/25 05:30:20;;;;;;;5.80;4.38;;;;;;;11.37;60.14;100744.41;5014041;28;20148;-70
2022/05/25 05:32:47;;;;;;;5.40;3.67;;;;;;;11.52;59.24;100741.06;5013777;28;20042;-70
2022/05/25 05:35:14;;;;;;;4.68;3.80;;;;;;;11.63;58.68;100746.16;5014314;28;20096;-70
2022/05/25 05:37:51;;;;;;;7.82;4.15;;;;;;;11.82;58.40;100747.69;5013719;28;20046;-69
2022/05/25 05:40:19;;;;;;;5.65;3.97;;;;;;;11.89;57.97;100754.06;5014120;28;20465;-69
2022/05/25 05:42:48;;;;;;;6.35;3.55;;;;;;;11.88;57.49;100749.72;5013872;28;20137;-69
2022/05/25 05:45:19;;;;;;;6.75;4.03;;;;;;;11.93;57.05;100753.59;5014190;28;20082;-69
2022/05/25 05:47:57;;;;;;;7.85;4.28;;;;;;;12.03;57.22;100760.63;5013535;28;20073;-70
2022/05/25 05:50:25;;;;;;;7.00;3.80;;;;;;;11.86;56.64;100755.28;5014430;28;20518;-69
2022/05/25 05:52:52;;;;;;;8.35;3.72;;;;;;;11.74;56.44;100758.44;5014207;28;20050;-69
2022/05/25 05:55:19;;;;;;;10.20;3.20;;;;;;;11.93;56.58;100758.09;5013943;28;20133;-70
2022/05/25 05:57:46;;;;;;;6.60;3.92;;;;;;;12.02;56.58;100750.88;5013940;28;20065;-70
2022/05/25 06:00:15;;;;;;;7.85;3.50;;;;;;;12.20;55.51;100759.59;5016509;28;20049;-70
2022/05/25 06:02:43;;;;;;;8.82;3.92;;;;;;;12.17;55.92;100754.56;5040129;23;20048;-70
2022/05/25 06:05:11;;;;;;;7.68;3.30;;;;;;;12.20;56.00;100756.06;5016912;28;20092;-69
2022/05/25 06:07:38;;;;;;;9.48;2.90;;;;;;;12.47;54.98;100746.78;5017004;28;20049;-69
2022/05/25 06:10:06;;;;;;;6.57;3.20;;;;;;;12.67;54.20;100752.63;5017385;28;20101;-69
2022/05/25 06:12:33;;;;;;;10.55;3.47;;;;;;;12.67;53.97;100755.31;5017305;28;20077;-70
2022/05/25 06:19:25;;;;;;;5.32;3.65;;;;;;;12.72;53.63;100761.00;5016881;28;20076;-70
2022/05/25 06:20:32;;;;;;;6.32;3.50;;;;;;;12.74;53.63;100757.16;5017207;28;20089;-69
2022/05/25 06:22:59;;;;;;;4.20;3.67;;;;;;;12.71;54.07;100762.03;5017383;28;20504;-70
2022/05/25 06:25:25;;;;;;;5.43;3.47;;;;;;;13.09;53.12;100765.78;5016929;28;20429;-70
2022/05/25 06:27:52;;;;;;;10.32;4.90;;;;;;;13.09;52.95;100773.84;5016903;28;20132;-72
2022/05/25 06:30:18;;;;;;;8.07;4.72;;;;;;;13.23;52.38;100773.09;5017789;28;20050;-71
2022/05/25 06:32:44;;;;;;;12.02;5.35;;;;;;;13.30;52.24;100771.38;5017394;28;20467;-72
2022/05/25 06:35:11;;;;;;;8.35;4.40;;;;;;;13.53;51.49;100773.28;5017350;28;20081;-72
2022/05/25 06:37:37;;;;;;;4.13;3.35;;;;;;;13.29;51.77;100774.25;5017736;28;20100;-70
2022/05/25 06:40:04;;;;;;;5.13;3.03;;;;;;;13.60;50.81;100776.94;5018147;28;20128;-72
2022/05/25 06:42:31;;;;;;;10.88;3.42;;;;;;;13.45;51.39;100781.41;5017639;28;20125;-72
2022/05/25 06:44:57;;;;;;;5.15;3.58;;;;;;;13.68;50.59;100784.13;5000051;28;20445;-72
2022/05/25 06:47:24;;;;;;;4.47;3.25;;;;;;;13.65;50.29;100790.72;5017622;28;20148;-71
2022/05/25 06:49:54;;;;;;;6.65;3.50;;;;;;;13.75;50.23;100795.88;5017264;28;20057;-72
2022/05/25 06:52:23;;;;;;;4.32;3.15;;;;;;;13.51;50.69;100794.16;5017591;28;20073;-72
2022/05/25 06:54:54;;;;;;;4.25;2.83;;;;;;;13.72;50.15;100799.75;5017976;28;20101;-72
2022/05/25 06:57:21;;;;;;;5.28;3.13;;;;;;;13.58;50.83;100795.97;5017683;28;20063;-72
2022/05/25 06:59:47;;;;;;;4.07;2.90;;;;;;;13.80;50.21;100796.19;5017397;28;20413;-72
2022/05/25 07:02:15;;;;;;;5.90;3.28;;;;;;;13.70;50.17;100799.09;5016839;28;20049;-72
2022/05/25 07:04:42;;;;;;;4.78;2.88;;;;;;;13.69;50.17;100797.41;5016525;28;20045;-71
2022/05/25 07:07:08;;;;;;;8.32;3.22;;;;;;;13.91;49.62;100789.53;5016147;28;20137;-71
2022/05/25 07:09:38;;;;;;;10.60;2.50;;;;;;;13.96;49.81;100798.78;4999106;28;20096;-71
2022/05/25 07:12:06;;;;;;;5.13;2.65;;;;;;;13.75;50.59;100795.88;5015571;28;20537;-72
2022/05/25 07:14:34;;;;;;;7.05;2.83;;;;;;;13.75;50.82;100796.69;5016134;28;20085;-71
2022/05/25 07:17:01;;;;;;;6.63;2.60;;;;;;;13.99;50.13;100797.56;5016587;28;20457;-72
2022/05/25 07:19:28;;;;;;;8.90;3.03;;;;;;;13.98;50.67;100809.41;5016597;28;20064;-72
2022/05/25 07:21:54;;;;;;;5.85;3.25;;;;;;;13.76;51.37;100808.34;5015905;28;20136;-72
2022/05/25 07:24:21;;;;;;;6.88;2.92;;;;;;;13.73;51.20;100812.22;5016418;28;20494;-71
2022/05/25 07:26:47;;;;;;;5.55;3.00;;;;;;;13.49;51.63;100815.91;5016308;28;20088;-72
2022/05/25 07:29:14;;;;;;;6.78;2.97;;;;;;;13.42;51.53;100819.47;5016474;28;20050;-72
2022/05/25 07:31:48;;;;;;;7.35;2.67;;;;;;;13.49;52.05;100815.06;5015639;28;20096;-72
2022/05/25 07:34:24;;;;;;;6.90;2.85;;;;;;;13.91;50.80;100811.97;5016094;28;20457;-71
2022/05/25 07:36:55;;;;;;;5.75;3.00;;;;;;;13.85;50.57;100814.53;5015904;28;20085;-71
2022/05/25 07:39:24;;;;;;;;;;;;;;;14.17;50.21;100822.38;5016292;28;20046;-72
2022/05/25 07:41:55;;;;;;;5.32;3.00;;;;;;;14.17;50.05;100833.16;5015857;28;19957;-72
2022/05/25 07:44:33;;;;;;;3.67;2.60;;;;;;;14.29;49.34;100837.13;5016427;28;20104;-72
2022/05/25 07:47:00;;;;;;;5.95;2.95;;;;;;;14.29;49.38;100837.13;5015871;28;20285;-73
2022/05/25 07:49:27;;;;;;;5.57;3.00;;;;;;;14.27;49.44;100828.34;5016298;28;20068;-72
2022/05/25 07:51:54;;;;;;;11.82;3.22;;;;;;;14.42;49.61;100828.38;5016198;28;20045;-72
2022/05/25 07:54:22;;;;;;;7.47;2.90;;;;;;;14.76;48.71;100827.91;5015996;28;20056;-72
2022/05/25 07:56:49;;;;;;;7.78;3.13;;;;;;;14.71;49.21;100833.03;5016774;28;20501;-73
2022/05/25 07:59:16;;;;;;;9.93;3.50;;;;;;;14.43;49.59;100835.47;5016163;28;20089;-71
2022/05/25 08:07:22;;;;;;;4.60;2.47;;;;;;;14.13;48.84;100844.50;4997576;28;20089;-72
2022/05/25 08:09:54;;;;;;;4.07;2.15;;;;;;;14.34;48.55;100846.53;4996715;28;20061;-73
2022/05/25 08:12:22;;;;;;;4.00;2.20;;;;;;;14.45;48.49;100848.78;4996705;28;20086;-73
2022/05/25 08:14:48;;;;;;;4.68;1.92;;;;;;;14.64;48.21;100839.34;4995891;28;20101;-71
2022/05/25 08:17:14;;;;;;;7.20;2.67;;;;;;;14.77;47.37;100845.81;4996008;28;20158;-72
2022/05/25 08:19:41;;;;;;;5.70;2.20;;;;;;;14.72;47.47;100842.81;4995815;28;20058;-72
2022/05/25 08:22:09;;;;;;;4.13;2.58;;;;;;;14.91;47.27;100845.97;4995406;28;20069;-73
2022/05/25 08:24:36;;;;;;;7.57;2.42;;;;;;;15.21;46.06;100841.41;4996032;28;20054;-72
2022/05/25 08:27:04;;;;;;;5.55;2.72;;;;;;;15.27;46.19;100845.25;4995698;28;20047;-72
2022/05/25 08:29:30;;;;;;;5.15;2.70;;;;;;;15.25;46.64;100842.72;4995939;28;20050;-71
2022/05/25 08:31:57;;;;;;;4.90;2.53;;;;;;;15.45;45.72;100843.81;4995818;28;20050;-71
2022/05/25 08:34:25;;;;;;;5.65;2.70;;;;;;;15.51;45.35;100852.19;4995904;28;20058;-72
2022/05/25 08:36:52;;;;;;;8.90;2.78;;;;;;;16.39;43.63;100845.63;4996812;28;20066;-72
2022/05/25 08:39:19;;;;;;;7.47;2.50;;;;;;;17.14;42.52;100844.09;4995679;28;20530;-72
2022/05/25 08:41:50;;;;;;;6.80;2.30;;;;;;;17.59;41.43;100852.66;4996503;28;20053;-71
2022/05/25 08:44:16;;;;;;;7.47;2.90;;;;;;;17.04;43.01;100849.88;4995793;28;20080;-71
2022/05/25 08:46:43;;;;;;;7.07;2.72;;;;;;;17.33;41.29;100848.75;4995814;28;20153;-72
2022/05/25 08:49:14;;;;;;;8.65;2.53;;;;;;;17.76;40.66;100845.00;4996075;28;20140;-72
2022/05/25 08:51:48;;;;;;;4.97;2.35;;;;;;;17.11;41.82;100848.03;4995458;28;20085;-71
2022/05/25 08:54:18;;;;;;;3.00;2.38;;;;;;;17.31;41.40;100848.13;4995932;28;20463;-72
2022/05/25 08:57:04;;;;;;;7.22;2.97;;;;;;;17.08;41.93;100840.28;4996020;28;20140;-72
2022/05/25 09:00:00;;;;;;;8.63;3.20;;;;;;;16.59;43.49;100841.25;4995591;28;20130;-72
2022/05/25 09:02:53;;;;;;;8.18;3.00;;;;;;;17.10;42.61;100849.09;4997076;28;20490;-72
2022/05/25 09:05:48;;;;;;;6.30;2.55;;;;;;;17.78;40.61;100849.16;5014562;28;20077;-70
2022/05/25 09:08:34;;;;;;;8.43;2.50;;;;;;;17.69;39.81;100846.84;5012252;28;20076;-71
2022/05/25 09:11:12;;;;;;;7.68;1.98;;;;;;;17.68;40.29;100845.16;5014729;28;20096;-71
2022/05/25 09:14:00;;;;;;;6.07;1.88;;;;;;;17.51;40.02;100856.41;5016690;28;20054;-72
2022/05/25 09:16:32;;;;;;;8.57;3.95;;;;;;;18.17;39.32;100852.19;5014716;28;20108;-73
2022/05/25 09:19:10;;;;;;;11.10;3.30;;;;;;;17.98;38.27;100851.91;5014459;28;20057;-73
2022/05/25 09:21:58;;;;;;;5.20;2.17;;;;;;;18.27;38.09;100848.03;5015370;28;20406;-73
2022/05/25 09:24:27;;;;;;;3.80;1.85;;;;;;;18.30;37.07;100838.63;5015081;28;20066;-72
2022/05/25 09:26:54;;;;;;;4.85;2.00;;;;;;;18.18;37.26;100845.72;5015408;28;20166;-73
2022/05/25 09:29:22;;;;;;;4.80;1.92;;;;;;;18.85;36.65;100844.63;5015677;28;20445;-73
2022/05/25 09:32:13;;;;;;;5.32;1.88;;;;;;;19.42;35.28;100842.22;5014579;28;20454;-73
2022/05/25 09:34:48;;;;;;;11.60;2.28;;;;;;;20.14;33.93;100840.13;5017587;28;20124;-74
2022/05/25 09:37:32;;;;;;;6.15;1.75;;;;;;;20.06;33.65;100848.56;5019134;28;20050;-74
2022/05/25 09:40:03;;;;;;;4.95;1.98;;;;;;;20.38;32.41;100847.47;5019073;28;20089;-74
2022/05/25 09:42:34;;;;;;;;;;;;;;;20.47;32.51;100841.78;5019005;28;20136;-74
2022/05/25 09:45:00;;;;;;;6.87;2.20;;;;;;;20.34;32.78;100843.53;5018726;28;19922;-73
2022/05/25 09:47:41;;;;;;;14.70;2.38;;;;;;;19.88;33.84;100847.44;5019599;28;20367;-74
2022/05/25 09:50:16;;;;;;;5.53;1.40;;;;;;;19.66;34.03;100848.78;5019220;28;20104;-73
2022/05/25 09:52:49;;;;;;;6.00;1.50;;;;;;;19.00;34.84;100839.84;5018658;28;20041;-73
2022/05/25 09:55:25;;;;;;;5.93;1.30;;;;;;;19.11;34.54;100851.09;5018689;28;20461;-74
2022/05/25 09:57:51;;;;;;;5.78;1.90;;;;;;;18.91;35.08;100846.50;5018439;28;20133;-73
2022/05/25 10:00:21;;;;;;;3.60;1.20;;;;;;;19.13;33.74;100844.38;5001729;28;20049;-73
2022/05/25 10:02:59;;;;;;;2.25;1.48;;;;;;;18.22;35.49;100838.84;5017627;28;20054;-72
2022/05/25 10:05:34;;;;;;;4.25;1.40;;;;;;;17.75;36.38;100851.44;5018212;28;20046;-72
2022/05/25 10:08:04;;;;;;;2.72;1.23;;;;;;;17.82;36.21;100842.31;5018597;28;20482;-72
2022/05/25 10:10:34;;;;;;;3.67;1.50;;;;;;;17.56;37.04;100848.47;5018325;28;20046;-73
2022/05/25 10:13:14;;;;;;;6.07;1.17;;;;;;;17.89;36.51;100842.31;5018017;28;20050;-72
2022/05/25 10:15:43;;;;;;;3.53;1.20;;;;;;;17.60;36.35;100838.06;5017881;28;20072;-73
2022/05/25 10:18:14;;;;;;;6.43;1.10;;;;;;;17.42;37.70;100841.31;5018006;28;20077;-74
2022/05/25 10:20:40;;;;;;;5.82;1.35;;;;;;;18.28;35.77;100827.97;5017974;28;20085;-73
2022/05/25 10:23:11;;;;;;;8.30;1.55;;;;;;;17.50;37.05;100830.28;5017810;28;20118;-73
2022/05/25 10:25:45;;;;;;;5.75;1.10;;;;;;;18.05;36.13;100824.78;5017984;28;20050;-74
2022/05/25 10:28:23;;;;;;;1.60;1.10;;;;;;;18.48;36.06;100824.41;5016843;28;20136;-73
2022/05/25 10:36:49;;;;;;;3.95;1.25;;;;;;;18.81;35.59;100812.66;5017549;28;20058;-73
2022/05/25 10:39:26;;;;;;;3.50;1.45;;;;;;;19.26;34.82;100810.88;5017916;28;20061;-73
2022/05/25 10:42:21;;;;;;;5.95;2.65;;;;;;;19.69;33.40;100808.41;5017195;28;20084;-72
2022/05/25 10:45:12;;;;;;;7.55;1.23;;;;;;;18.81;33.83;100805.34;5017109;28;20073;-73
2022/05/25 10:47:57;;;;;;;2.38;1.30;;;;;;;18.82;34.21;100807.00;5003426;28;20454;-72
2022/05/25 10:50:26;;;;;;;4.55;1.80;;;;;;;18.94;33.71;100808.06;5017280;28;20466;-71
2022/05/25 10:53:10;;;;;;;3.28;1.17;;;;;;;19.02;33.71;100805.09;5016697;28;20479;-73
2022/05/25 10:55:45;;;;;;;3.08;1.10;;;;;;;19.17;33.73;100804.84;4999269;28;20058;-73
2022/05/25 10:58:26;;;;;;;4.00;1.20;;;;;;;18.44;33.95;100801.41;5016585;28;20053;-73
2022/05/25 11:01:10;;;;;;;5.55;1.25;;;;;;;18.32;34.57;100801.22;5016395;28;20085;-72
2022/05/25 11:03:50;;;;;;;4.50;1.23;;;;;;;18.58;34.42;100808.50;5015530;28;20057;-73
2022/05/25 11:06:52;;;;;;;5.60;1.10;;;;;;;18.26;34.83;100805.59;5015514;28;20085;-75
2022/05/25 11:09:55;;;;;;;4.78;1.00;;;;;;;17.46;35.46;100803.78;5015055;28;20133;-72
2022/05/25 11:12:56;;;;;;;5.13;0.90;;;;;;;17.06;36.01;100803.59;5015264;28;20498;-73
2022/05/25 11:15:47;;;;;;;3.58;1.05;;;;;;;17.41;35.31;100800.88;5015089;28;20108;-72
2022/05/25 11:18:38;;;;;;;3.58;1.05;;;;;;;17.59;35.09;100804.66;4997401;28;20050;-73
2022/05/25 11:21:27;;;;;;;2.95;1.08;;;;;;;18.02;34.43;100800.78;5015859;28;20112;-73
2022/05/25 11:24:15;;;;;;;2.92;1.05;;;;;;;17.88;34.12;100802.63;5015495;28;20453;-74
2022/05/25 11:27:08;;;;;;;3.88;0.90;;;;;;;17.97;34.19;100795.13;5015303;28;20054;-72
2022/05/25 11:29:53;;;;;;;2.70;1.00;;;;;;;17.68;35.34;100797.16;5015572;28;20077;-73
2022/05/25 11:32:53;;;;;;;3.55;0.80;;;;;;;17.43;35.53;100801.47;5015487;28;20482;-74
2022/05/25 11:35:48;;;;;;;3.00;0.93;;;;;;;16.96;37.12;100795.00;5015515;28;20081;-73
2022/05/25 11:38:23;;;;;;;4.18;2.15;;;;;;;16.93;36.68;100798.94;5015477;28;20046;-73
2022/05/25 11:41:16;;;;;;;9.63;2.38;;;;;;;17.29;36.78;100793.25;5014761;28;20085;-71
2022/05/25 11:44:07;;;;;;;3.97;1.38;;;;;;;17.33;37.04;100790.97;5015252;28;20050;-73
2022/05/25 11:46:42;;;;;;;2.80;0.75;;;;;;;17.31;36.55;100782.22;5014843;28;20050;-73
2022/05/25 11:49:43;;;;;;;5.78;0.82;;;;;;;17.50;37.05;100792.31;5015334;28;20049;-73
2022/05/25 11:52:28;;;;;;;2.30;1.02;;;;;;;16.98;37.75;100782.06;5015392;28;20441;-73
2022/05/25 11:55:16;;;;;;;7.00;1.02;;;;;;;17.25;37.61;100802.00;5014273;28;20081;-72
2022/05/25 11:58:00;;;;;;;7.22;1.10;;;;;;;17.44;36.92;100800.44;5013370;28;20057;-73
2022/05/25 12:00:35;;;;;;;2.15;0.70;;;;;;;17.11;35.86;100799.25;4996800;28;20540;-73
2022/05/25 12:03:39;;;;;;;1.70;0.88;;;;;;;17.04;36.66;100795.66;4979381;28;1015006;-74
2022/05/25 12:06:43;;;;;;;2.55;0.80;;;;;;;17.04;35.81;100795.66;5015190;28;20069;-72
2022/05/25 12:10:06;;;;;;;5.45;1.13;;;;;;;16.87;36.43;100791.63;5015385;28;20069;-74
2022/05/25 12:12:56;;;;;;;6.10;1.13;;;;;;;16.55;37.25;100795.81;4935325;29;20083;-71
2022/05/25 12:15:28;;;;;;;3.22;1.05;;;;;;;16.51;38.09;100798.06;4935261;29;20187;-74
2022/05/25 12:18:11;;;;;;;3.40;0.93;;;;;;;16.44;37.40;100789.03;4934922;29;20135;-73